createdAt,value
2023-03-04T00:02:25.173Z,50.53
2023-03-04T00:07:27.162Z,42.87
2023-03-04T00:12:29.123Z,52.23
2023-03-04T00:17:31.662Z,52.93
2023-03-04T00:22:33.641Z,52.60
2023-03-04T00:27:35.623Z,51.50
2023-03-04T00:32:38.083Z,55.10
2023-03-04T00:37:40.212Z,46.80
2023-03-04T00:42:42.174Z,55.07
2023-03-04T00:47:44.183Z,51.93
2023-03-04T00:52:46.206Z,47.43
2023-03-04T00:57:48.109Z,54.03
2023-03-04T01:02:50.229Z,53.47
2023-03-04T01:07:52.170Z,45.20
2023-03-04T01:12:54.214Z,43.57
2023-03-04T01:17:56.544Z,42.83
2023-03-04T01:22:58.484Z,54.13
2023-03-04T01:28:00.397Z,46.37
2023-03-04T01:33:02.291Z,55.87
2023-03-04T01:38:05.219Z,52.43
2023-03-04T01:43:07.346Z,62.77
2023-03-04T01:48:12.806Z,48.30
2023-03-04T01:53:21.920Z,42.93
2023-03-04T01:58:30.336Z,46.00
2023-03-04T02:03:32.253Z,51.07
2023-03-04T02:08:34.911Z,49.47
2023-03-04T02:13:37.174Z,45.27
2023-03-04T02:18:39.697Z,61.67
2023-03-04T02:24:20.596Z,55.20
2023-03-04T02:29:23.223Z,50.63
2023-03-04T02:34:31.987Z,51.83
2023-03-04T02:39:40.008Z,58.83
2023-03-04T02:44:46.224Z,55.97
2023-03-04T02:49:48.376Z,40.87
2023-03-04T02:54:50.478Z,49.83
2023-03-04T02:59:52.999Z,63.03
2023-03-04T03:04:58.214Z,49.20
2023-03-04T03:10:02.259Z,40.47
2023-03-04T03:15:06.401Z,40.17
2023-03-04T03:20:10.345Z,42.70
2023-03-04T03:25:13.917Z,49.53
2023-03-04T03:30:16.415Z,46.63
2023-03-04T03:35:18.805Z,49.63
2023-03-04T03:40:20.780Z,53.60
2023-03-04T03:45:22.589Z,49.67
2023-03-04T03:50:24.501Z,53.53
2023-03-04T03:55:26.901Z,48.07
2023-03-04T04:00:28.808Z,50.53
2023-03-04T04:05:30.629Z,59.83
2023-03-04T04:10:32.497Z,54.00
2023-03-04T04:15:34.476Z,51.67
2023-03-04T04:20:36.723Z,50.90
2023-03-04T04:25:38.603Z,51.50
2023-03-04T04:30:40.623Z,43.93
2023-03-04T04:35:42.702Z,48.20
2023-03-04T04:40:44.630Z,44.63
2023-03-04T04:45:46.421Z,55.87
2023-03-04T04:50:54.655Z,51.10
2023-03-04T04:55:56.437Z,52.20
2023-03-04T05:00:58.318Z,45.67
2023-03-04T05:06:00.387Z,40.60
2023-03-04T05:11:04.951Z,43.67
2023-03-04T05:16:07.338Z,53.43
2023-03-04T05:21:09.470Z,47.50
2023-03-04T05:26:14.998Z,49.97
2023-03-04T05:31:17.841Z,43.53
2023-03-04T05:36:19.780Z,47.60
2023-03-04T05:41:22.762Z,45.43
2023-03-04T05:46:25.671Z,49.70
2023-03-04T05:51:27.691Z,55.63
2023-03-04T05:56:30.524Z,57.80
2023-03-04T06:01:32.381Z,69.97
2023-03-04T06:06:34.196Z,70.93
2023-03-04T06:11:36.518Z,76.73
2023-03-04T06:16:38.677Z,73.90
2023-03-04T06:21:40.492Z,76.93
2023-03-04T06:26:42.342Z,75.23
2023-03-04T06:31:44.132Z,53.30
2023-03-04T06:36:45.949Z,73.70
2023-03-04T06:41:47.749Z,71.53
2023-03-04T06:46:49.628Z,55.60
2023-03-04T06:51:51.515Z,62.13
2023-03-04T06:56:53.387Z,76.30
2023-03-04T07:01:55.407Z,74.57
2023-03-04T07:06:57.438Z,68.00
2023-03-04T07:11:59.318Z,68.00
2023-03-04T07:17:01.082Z,67.37
2023-03-04T07:22:02.953Z,59.93
2023-03-04T07:27:04.756Z,81.10
2023-03-04T07:32:10.850Z,57.77
2023-03-04T07:37:12.888Z,63.77
2023-03-04T07:42:14.815Z,57.77
2023-03-04T07:47:20.104Z,59.53
2023-03-04T07:52:22.051Z,66.87
2023-03-04T07:57:24.066Z,55.97
2023-03-04T08:02:26.022Z,64.43
2023-03-04T08:07:27.992Z,73.77
2023-03-04T08:12:30.048Z,64.90
2023-03-04T08:17:31.948Z,52.97
2023-03-04T08:22:33.787Z,55.60
2023-03-04T08:27:37.293Z,67.10
2023-03-04T08:32:39.375Z,56.70
2023-03-04T08:37:41.372Z,68.90
2023-03-04T08:42:43.253Z,70.00
2023-03-04T08:47:45.190Z,60.03
2023-03-04T08:52:46.988Z,62.37
2023-03-04T08:57:48.962Z,72.37
2023-03-04T09:02:50.857Z,61.13
2023-03-04T09:07:54.207Z,67.17
2023-03-04T09:12:56.111Z,63.80
2023-03-04T09:17:57.995Z,66.97
2023-03-04T09:23:00.036Z,52.00
2023-03-04T09:28:02.032Z,78.20
2023-03-04T09:33:04.126Z,60.43
2023-03-04T09:38:06.219Z,59.70
2023-03-04T09:43:22.633Z,66.30
2023-03-04T09:48:29.063Z,71.53
2023-03-04T09:53:53.487Z,74.87
2023-03-04T09:59:04.413Z,67.20
2023-03-04T10:04:21.456Z,64.27
2023-03-04T10:09:57.381Z,53.30
2023-03-04T10:15:14.182Z,57.03
2023-03-04T10:20:46.729Z,61.83
2023-03-04T10:25:53.868Z,79.73
2023-03-04T10:31:11.540Z,61.97
2023-03-04T10:36:22.537Z,54.13
2023-03-04T10:41:27.635Z,53.77
2023-03-04T10:46:30.871Z,59.40
2023-03-04T10:51:41.685Z,52.70
2023-03-04T10:56:59.547Z,53.63
2023-03-04T11:02:17.636Z,49.83
2023-03-04T11:07:29.109Z,62.97
2023-03-04T11:12:34.420Z,56.77
2023-03-04T11:17:47.315Z,59.07
2023-03-04T11:22:50.855Z,62.97
2023-03-04T11:27:57.609Z,56.27
2023-03-04T11:33:26.141Z,65.07
2023-03-04T11:38:44.616Z,50.20
2023-03-04T11:43:47.716Z,54.40
2023-03-04T11:49:11.981Z,53.97
2023-03-04T11:54:57.482Z,72.93
2023-03-04T12:00:21.507Z,68.10
2023-03-04T12:05:48.528Z,55.13
2023-03-04T12:11:21.896Z,55.07
2023-03-04T12:16:54.994Z,65.40
2023-03-04T12:22:14.994Z,64.30
2023-03-04T12:27:43.952Z,59.50
2023-03-04T12:32:58.149Z,65.10
2023-03-04T12:38:13.139Z,56.37
2023-03-04T12:43:36.084Z,68.53
2023-03-04T12:48:43.061Z,53.60
2023-03-04T12:54:14.493Z,61.47
2023-03-04T12:59:19.921Z,59.33
2023-03-04T13:04:40.252Z,68.43
2023-03-04T13:09:58.377Z,54.37
2023-03-04T13:15:09.442Z,44.60
2023-03-04T13:20:29.188Z,55.97
2023-03-04T13:25:36.117Z,58.67
2023-03-04T13:30:38.320Z,53.53
2023-03-04T13:35:48.970Z,72.63
2023-03-04T13:41:14.397Z,52.00
2023-03-04T13:46:30.270Z,49.97
2023-03-04T13:51:45.041Z,44.73
2023-03-04T13:56:50.274Z,48.70
2023-03-04T14:02:02.961Z,43.70
2023-03-04T14:07:18.985Z,45.97
2023-03-04T14:12:21.215Z,59.73
2023-03-04T14:17:28.279Z,52.23
2023-03-04T14:22:33.767Z,46.53
2023-03-04T14:27:37.057Z,46.33
2023-03-04T14:32:43.109Z,52.17
2023-03-04T14:37:54.692Z,43.87
2023-03-04T14:43:19.006Z,51.73
2023-03-04T14:48:33.721Z,51.00
2023-03-04T14:53:35.864Z,50.00
2023-03-04T14:58:52.826Z,47.40
2023-03-04T15:04:00.529Z,48.57
2023-03-04T15:09:36.920Z,53.47
2023-03-04T15:14:59.391Z,51.73
2023-03-04T15:20:11.307Z,43.83
2023-03-04T15:25:20.128Z,47.33
2023-03-04T15:30:29.011Z,51.93
2023-03-04T15:35:33.266Z,50.63
2023-03-04T15:40:41.963Z,45.63
2023-03-04T15:45:44.289Z,42.63
2023-03-04T15:50:56.649Z,49.70
2023-03-04T15:55:58.753Z,40.67
2023-03-04T16:01:00.608Z,53.60
2023-03-04T16:06:02.425Z,47.63
2023-03-04T16:11:04.608Z,59.73
2023-03-04T16:16:10.050Z,44.37
2023-03-04T16:21:18.137Z,49.87
2023-03-04T16:26:22.706Z,59.00
2023-03-04T16:31:24.605Z,50.73
2023-03-04T16:36:29.081Z,54.33
2023-03-04T16:41:31.072Z,59.60
2023-03-04T16:46:32.977Z,54.77
2023-03-04T16:51:40.472Z,63.53
2023-03-04T16:56:42.492Z,57.13
2023-03-04T17:01:44.447Z,47.80
2023-03-04T17:06:46.348Z,52.87
2023-03-04T17:11:48.144Z,63.40
2023-03-04T17:16:50.030Z,58.70
2023-03-04T17:21:51.840Z,60.97
2023-03-04T17:26:53.993Z,57.30
2023-03-04T17:31:55.976Z,56.93
2023-03-04T17:36:58.322Z,47.73
2023-03-04T17:42:00.118Z,55.87
2023-03-04T17:47:02.016Z,61.83
2023-03-04T17:52:04.801Z,51.77
2023-03-04T17:57:06.943Z,55.97
2023-03-04T18:02:14.960Z,55.00
2023-03-04T18:07:16.851Z,54.23
2023-03-04T18:12:18.716Z,51.03
2023-03-04T18:17:20.551Z,33.80
2023-03-04T18:22:22.460Z,36.43
2023-03-04T18:27:24.337Z,32.07
2023-03-04T18:32:26.359Z,30.43
2023-03-04T18:37:28.262Z,28.23
2023-03-04T18:42:30.160Z,35.10
2023-03-04T18:47:33.192Z,27.30
2023-03-04T18:52:35.927Z,25.10
2023-03-04T18:57:43.859Z,29.13
2023-03-04T19:02:48.030Z,27.93
2023-03-04T19:07:49.983Z,34.73
2023-03-04T19:12:52.183Z,40.13
2023-03-04T19:17:54.020Z,31.23
2023-03-04T19:22:55.810Z,33.70
2023-03-04T19:27:57.692Z,35.77
2023-03-04T19:33:00.196Z,39.10
2023-03-04T19:38:02.365Z,35.83
2023-03-04T19:43:04.462Z,43.20
2023-03-04T19:48:07.005Z,38.37
2023-03-04T19:53:08.926Z,34.57
2023-03-04T19:58:10.902Z,43.30
2023-03-04T20:03:13.664Z,35.60
2023-03-04T20:08:15.666Z,35.97
2023-03-04T20:13:18.816Z,32.30
2023-03-04T20:18:20.847Z,41.13
2023-03-04T20:23:23.051Z,41.23
2023-03-04T20:28:25.927Z,35.60
2023-03-04T20:33:27.960Z,36.40
2023-03-04T20:38:30.048Z,41.13
2023-03-04T20:43:32.028Z,32.00
2023-03-04T20:48:34.102Z,38.43
2023-03-04T20:53:36.104Z,32.20
2023-03-04T20:58:38.092Z,40.97
2023-03-04T21:03:40.596Z,31.30
2023-03-04T21:08:43.476Z,30.90
2023-03-04T21:13:45.752Z,34.67
2023-03-04T21:18:48.719Z,36.03
2023-03-04T21:23:52.394Z,34.80
2023-03-04T21:28:54.878Z,50.63
2023-03-04T21:34:00.218Z,40.20
2023-03-04T21:39:02.190Z,35.77
2023-03-04T21:44:04.140Z,34.50
2023-03-04T21:49:08.988Z,33.67
2023-03-04T21:54:13.057Z,36.40
2023-03-04T21:59:15.180Z,40.73
2023-03-04T22:04:17.094Z,40.13
2023-03-04T22:09:19.134Z,37.77
2023-03-04T22:14:21.088Z,38.23
2023-03-04T22:19:30.578Z,35.90
2023-03-04T22:24:32.943Z,39.90
2023-03-04T22:29:34.900Z,35.60
2023-03-04T22:34:36.917Z,36.80
2023-03-04T22:39:39.022Z,33.73
2023-03-04T22:44:40.966Z,46.23
2023-03-04T22:49:42.939Z,37.00
2023-03-04T22:54:47.870Z,38.57
2023-03-04T22:59:50.274Z,44.17
2023-03-04T23:04:52.171Z,41.60
2023-03-04T23:09:54.208Z,35.83
2023-03-04T23:14:56.311Z,35.63
2023-03-04T23:19:58.442Z,34.50
2023-03-04T23:25:00.540Z,39.23
2023-03-04T23:30:02.654Z,50.40
2023-03-04T23:35:04.993Z,36.43
2023-03-04T23:40:07.624Z,31.33
2023-03-04T23:45:10.144Z,29.80
2023-03-04T23:50:15.306Z,29.23
2023-03-04T23:55:19.194Z,32.40
